sensor_id;sensor_type;location;lat;lon;timestamp;pressure;altitude;pressure_sealevel;temperature;humidity
62152;BME280;48139;47.474;19.034;2023-02-28T04:45:15;101555.34;;;1.84;59.54
62152;BME280;48139;47.474;19.034;2023-02-28T04:48:19;101555.34;;;1.84;59.54
62152;BME280;48139;47.474;19.034;2023-02-28T04:51:23;101562.78;;;1.46;60.75
62152;BME280;48139;47.474;19.034;2023-02-28T04:54:26;101555.97;;;1.54;59.08
62152;BME280;48139;47.474;19.034;2023-02-28T04:57:28;101561.16;;;1.55;59.57
62152;BME280;48139;47.474;19.034;2023-02-28T05:00:33;101563.75;;;1.58;60.12
62152;BME280;48139;47.474;19.034;2023-02-28T05:03:36;101561.12;;;1.54;59.38
62152;BME280;48139;47.474;19.034;2023-02-28T05:06:39;101560.22;;;1.47;59.98
62152;BME280;48139;47.474;19.034;2023-02-28T05:09:41;101561.22;;;1.61;59.07
62152;BME280;48139;47.474;19.034;2023-02-28T05:12:44;101560.28;;;1.58;58.63
62152;BME280;48139;47.474;19.034;2023-02-28T05:15:46;101562.06;;;1.63;59.43
62152;BME280;48139;47.474;19.034;2023-02-28T05:18:49;101568.97;;;1.65;59.46
62152;BME280;48139;47.474;19.034;2023-02-28T05:21:54;101562.97;;;1.70;58.00
62152;BME280;48139;47.474;19.034;2023-02-28T05:24:57;101565.69;;;1.85;58.55
62152;BME280;48139;47.474;19.034;2023-02-28T05:28:00;101560.41;;;1.70;59.98
62152;BME280;48139;47.474;19.034;2023-02-28T05:31:03;101575.06;;;1.73;60.61
62152;BME280;48139;47.474;19.034;2023-02-28T05:34:06;101570.06;;;1.92;58.93
62152;BME280;48139;47.474;19.034;2023-02-28T05:37:11;101568.34;;;1.94;58.82
62152;BME280;48139;47.474;19.034;2023-02-28T05:40:15;101576.94;;;1.92;58.87
62152;BME280;48139;47.474;19.034;2023-02-28T05:43:18;101585.59;;;1.97;59.48
62152;BME280;48139;47.474;19.034;2023-02-28T05:46:20;101577.75;;;1.88;60.09
62152;BME280;48139;47.474;19.034;2023-02-28T05:49:23;101579.50;;;1.86;59.58
62152;BME280;48139;47.474;19.034;2023-02-28T05:52:25;101584.59;;;1.78;60.66
62152;BME280;48139;47.474;19.034;2023-02-28T05:55:28;101585.56;;;1.95;60.59
62152;BME280;48139;47.474;19.034;2023-02-28T05:58:31;101595.06;;;1.96;60.39
62152;BME280;48139;47.474;19.034;2023-02-28T06:01:37;101593.44;;;2.06;60.10
62152;BME280;48139;47.474;19.034;2023-02-28T06:04:40;101591.66;;;1.99;60.60
62152;BME280;48139;47.474;19.034;2023-02-28T06:07:44;101588.28;;;2.09;59.86
62152;BME280;48139;47.474;19.034;2023-02-28T06:10:47;101580.47;;;2.03;59.36
62152;BME280;48139;47.474;19.034;2023-02-28T06:13:49;101592.59;;;2.13;59.01
62152;BME280;48139;47.474;19.034;2023-02-28T06:16:52;101593.47;;;2.12;58.10
62152;BME280;48139;47.474;19.034;2023-02-28T06:19:54;101598.66;;;2.12;57.28
62152;BME280;48139;47.474;19.034;2023-02-28T06:22:58;101601.28;;;2.18;57.71
62152;BME280;48139;47.474;19.034;2023-02-28T06:26:00;101591.88;;;2.32;56.43
62152;BME280;48139;47.474;19.034;2023-02-28T06:29:03;101602.19;;;2.25;56.67
62152;BME280;48139;47.474;19.034;2023-02-28T06:32:05;101604.75;;;2.26;57.34
62152;BME280;48139;47.474;19.034;2023-02-28T06:35:09;101604.00;;;2.41;56.71
62152;BME280;48139;47.474;19.034;2023-02-28T06:38:11;101599.72;;;2.51;56.74
62152;BME280;48139;47.474;19.034;2023-02-28T06:41:14;101605.84;;;2.65;56.81
62152;BME280;48139;47.474;19.034;2023-02-28T06:44:18;101607.56;;;2.64;56.78
62152;BME280;48139;47.474;19.034;2023-02-28T06:47:21;101617.16;;;2.88;56.16
62152;BME280;48139;47.474;19.034;2023-02-28T06:50:24;101614.50;;;2.70;55.94
62152;BME280;48139;47.474;19.034;2023-02-28T06:53:27;101621.41;;;2.71;56.89
62152;BME280;48139;47.474;19.034;2023-02-28T06:56:29;101611.91;;;2.71;55.85
62152;BME280;48139;47.474;19.034;2023-02-28T06:59:33;101610.19;;;2.75;55.62
62152;BME280;48139;47.474;19.034;2023-02-28T07:02:36;101613.66;;;2.77;55.36
62152;BME280;48139;47.474;19.034;2023-02-28T07:05:39;101614.59;;;2.87;55.12
62152;BME280;48139;47.474;19.034;2023-02-28T07:08:42;101616.37;;;2.98;53.97
62152;BME280;48139;47.474;19.034;2023-02-28T07:11:45;101616.31;;;2.91;54.02
62152;BME280;48139;47.474;19.034;2023-02-28T07:14:47;101627.69;;;3.24;53.50
62152;BME280;48139;47.474;19.034;2023-02-28T07:17:50;101632.09;;;3.60;51.94
62152;BME280;48139;47.474;19.034;2023-02-28T07:20:53;101626.06;;;3.80;51.96
62152;BME280;48139;47.474;19.034;2023-02-28T07:23:56;101632.97;;;3.97;50.67
62152;BME280;48139;47.474;19.034;2023-02-28T07:26:59;101624.34;;;4.11;50.08
62152;BME280;48139;47.474;19.034;2023-02-28T07:30:02;101626.06;;;4.05;50.96
62152;BME280;48139;47.474;19.034;2023-02-28T07:33:05;101628.66;;;4.16;50.25
62152;BME280;48139;47.474;19.034;2023-02-28T07:36:12;101634.72;;;4.12;49.70
62152;BME280;48139;47.474;19.034;2023-02-28T07:39:17;101638.16;;;4.19;50.67
62152;BME280;48139;47.474;19.034;2023-02-28T07:42:20;101638.16;;;4.14;49.92
62152;BME280;48139;47.474;19.034;2023-02-28T07:45:23;101645.09;;;4.23;50.39
62152;BME280;48139;47.474;19.034;2023-02-28T07:48:26;101649.38;;;4.40;49.49
62152;BME280;48139;47.474;19.034;2023-02-28T07:51:29;101644.16;;;4.51;49.08
62152;BME280;48139;47.474;19.034;2023-02-28T07:54:33;101643.31;;;4.46;49.37
62152;BME280;48139;47.474;19.034;2023-02-28T07:57:36;101644.97;;;4.77;48.32
62152;BME280;48139;47.474;19.034;2023-02-28T08:00:39;101650.13;;;4.90;47.86
62152;BME280;48139;47.474;19.034;2023-02-28T08:03:42;101648.38;;;5.04;47.67
62152;BME280;48139;47.474;19.034;2023-02-28T08:06:44;101643.91;;;5.33;46.81
62152;BME280;48139;47.474;19.034;2023-02-28T08:09:47;101641.94;;;5.70;44.81
62152;BME280;48139;47.474;19.034;2023-02-28T08:12:49;101643.66;;;5.73;44.55
62152;BME280;48139;47.474;19.034;2023-02-28T08:15:53;101643.63;;;5.77;44.86
62152;BME280;48139;47.474;19.034;2023-02-28T08:18:57;101633.19;;;5.82;43.44
62152;BME280;48139;47.474;19.034;2023-02-28T08:22:00;101637.41;;;6.02;44.40
62152;BME280;48139;47.474;19.034;2023-02-28T08:25:03;101640.66;;;6.27;43.69
62152;BME280;48139;47.474;19.034;2023-02-28T08:28:06;101635.75;;;6.84;41.31
62152;BME280;48139;47.474;19.034;2023-02-28T08:31:12;101633.59;;;7.81;39.80
62152;BME280;48139;47.474;19.034;2023-02-28T08:34:16;101635.56;;;8.20;38.60
62152;BME280;48139;47.474;19.034;2023-02-28T08:37:18;101627.94;;;8.06;38.85
62152;BME280;48139;47.474;19.034;2023-02-28T08:40:24;101635.16;;;7.92;40.42
62152;BME280;48139;47.474;19.034;2023-02-28T08:43:27;101636.66;;;8.58;38.00
62152;BME280;48139;47.474;19.034;2023-02-28T08:46:30;101631.81;;;8.82;37.30
62152;BME280;48139;47.474;19.034;2023-02-28T08:49:32;101643.25;;;8.28;38.12
62152;BME280;48139;47.474;19.034;2023-02-28T08:52:35;101629.72;;;9.01;36.98
62152;BME280;48139;47.474;19.034;2023-02-28T08:55:37;101637.72;;;9.35;35.86
62152;BME280;48139;47.474;19.034;2023-02-28T08:58:42;101629.94;;;9.70;35.77
62152;BME280;48139;47.474;19.034;2023-02-28T09:01:44;101628.69;;;9.87;35.12
62152;BME280;48139;47.474;19.034;2023-02-28T09:04:47;101625.94;;;8.73;36.76
62152;BME280;48139;47.474;19.034;2023-02-28T09:07:49;101624.66;;;7.95;38.54
62152;BME280;48139;47.474;19.034;2023-02-28T09:10:53;101634.41;;;7.24;39.99
62152;BME280;48139;47.474;19.034;2023-02-28T09:13:57;101640.03;;;6.89;41.48
62152;BME280;48139;47.474;19.034;2023-02-28T09:17:01;101636.63;;;6.83;41.29
62152;BME280;48139;47.474;19.034;2023-02-28T09:20:04;101627.97;;;6.81;41.80
62152;BME280;48139;47.474;19.034;2023-02-28T09:23:08;101636.31;;;7.09;41.57
62152;BME280;48139;47.474;19.034;2023-02-28T09:26:22;101626.53;;;7.27;41.99
62152;BME280;48139;47.474;19.034;2023-02-28T09:29:25;101630.00;;;7.28;40.84
62152;BME280;48139;47.474;19.034;2023-02-28T09:32:29;101637.25;;;7.03;42.42
62152;BME280;48139;47.474;19.034;2023-02-28T09:35:34;101636.06;;;6.55;42.17
62152;BME280;48139;47.474;19.034;2023-02-28T09:38:39;101648.19;;;6.58;43.96
62152;BME280;48139;47.474;19.034;2023-02-28T09:41:48;101648.31;;;6.44;42.74
62152;BME280;48139;47.474;19.034;2023-02-28T09:44:53;101637.75;;;6.58;42.72
62152;BME280;48139;47.474;19.034;2023-02-28T09:47:59;101636.03;;;6.60;42.93
62152;BME280;48139;47.474;19.034;2023-02-28T09:54:32;101641.09;;;6.73;43.43
62152;BME280;48139;47.474;19.034;2023-02-28T09:57:39;101636.59;;;6.86;42.25
62152;BME280;48139;47.474;19.034;2023-02-28T10:00:43;101637.56;;;6.76;42.34
62152;BME280;48139;47.474;19.034;2023-02-28T10:04:15;101638.22;;;6.96;42.40
62152;BME280;48139;47.474;19.034;2023-02-28T10:07:20;101623.53;;;6.91;42.71
62152;BME280;48139;47.474;19.034;2023-02-28T10:10:35;101624.47;;;6.82;42.79
62152;BME280;48139;47.474;19.034;2023-02-28T10:13:54;101628.88;;;6.78;42.71
62152;BME280;48139;47.474;19.034;2023-02-28T10:17:11;101626.06;;;6.95;42.75
62152;BME280;48139;47.474;19.034;2023-02-28T10:20:20;101618.19;;;7.00;43.81
62152;BME280;48139;47.474;19.034;2023-02-28T10:23:35;101624.03;;;7.18;42.01
62152;BME280;48139;47.474;19.034;2023-02-28T10:26:40;101618.88;;;7.15;43.05
62152;BME280;48139;47.474;19.034;2023-02-28T10:29:54;101614.38;;;7.25;42.54
62152;BME280;48139;47.474;19.034;2023-02-28T10:32:57;101620.34;;;7.35;42.88
62152;BME280;48139;47.474;19.034;2023-02-28T10:36:01;101617.66;;;7.42;42.33
62152;BME280;48139;47.474;19.034;2023-02-28T10:39:33;101612.47;;;7.39;41.31
62152;BME280;48139;47.474;19.034;2023-02-28T10:42:28;101598.47;;;7.46;41.62
62152;BME280;48139;47.474;19.034;2023-02-28T10:45:35;101599.16;;;7.57;41.49
62152;BME280;48139;47.474;19.034;2023-02-28T10:48:41;101597.16;;;7.15;42.81
62152;BME280;48139;47.474;19.034;2023-02-28T10:51:46;101596.97;;;7.28;41.97
62152;BME280;48139;47.474;19.034;2023-02-28T10:55:15;101587.53;;;7.21;41.74
62152;BME280;48139;47.474;19.034;2023-02-28T10:58:26;101597.69;;;7.38;42.14
62152;BME280;48139;47.474;19.034;2023-02-28T11:04:35;101583.50;;;6.99;42.69
62152;BME280;48139;47.474;19.034;2023-02-28T11:07:39;101587.25;;;7.41;42.93
62152;BME280;48139;47.474;19.034;2023-02-28T11:10:56;101589.75;;;7.49;42.37
62152;BME280;48139;47.474;19.034;2023-02-28T11:14:04;101595.97;;;7.39;43.21
62152;BME280;48139;47.474;19.034;2023-02-28T11:17:22;101599.66;;;7.24;42.93
62152;BME280;48139;47.474;19.034;2023-02-28T11:20:28;101584.34;;;7.61;42.42
62152;BME280;48139;47.474;19.034;2023-02-28T11:23:34;101575.50;;;7.69;42.05
62152;BME280;48139;47.474;19.034;2023-02-28T11:26:45;101578.38;;;7.54;42.74
62152;BME280;48139;47.474;19.034;2023-02-28T11:29:48;101574.06;;;7.50;42.67
62152;BME280;48139;47.474;19.034;2023-02-28T11:32:50;101582.41;;;7.74;42.77
62152;BME280;48139;47.474;19.034;2023-02-28T11:36:03;101569.63;;;7.57;42.00
62152;BME280;48139;47.474;19.034;2023-02-28T11:39:10;101572.13;;;7.63;43.08
62152;BME280;48139;47.474;19.034;2023-02-28T11:42:34;101578.19;;;7.65;43.42
62152;BME280;48139;47.474;19.034;2023-02-28T11:46:04;101574.50;;;7.18;43.41
62152;BME280;48139;47.474;19.034;2023-02-28T11:52:54;101563.88;;;7.37;44.46
62152;BME280;48139;47.474;19.034;2023-02-28T11:56:06;101564.50;;;7.51;44.91
62152;BME280;48139;47.474;19.034;2023-02-28T11:59:34;101559.09;;;7.63;42.79
62152;BME280;48139;47.474;19.034;2023-02-28T12:06:18;101556.34;;;7.74;42.92
62152;BME280;48139;47.474;19.034;2023-02-28T12:09:46;101548.31;;;7.86;42.64
62152;BME280;48139;47.474;19.034;2023-02-28T12:16:32;101543.78;;;7.95;41.88
62152;BME280;48139;47.474;19.034;2023-02-28T12:19:58;101545.47;;;7.99;42.61
62152;BME280;48139;47.474;19.034;2023-02-28T12:26:45;101535.00;;;7.49;44.89
62152;BME280;48139;47.474;19.034;2023-02-28T12:30:13;101527.66;;;7.72;44.80
62152;BME280;48139;47.474;19.034;2023-02-28T12:33:22;101523.62;;;8.03;43.46
62152;BME280;48139;47.474;19.034;2023-02-28T12:36:27;101528.13;;;7.95;43.38
62152;BME280;48139;47.474;19.034;2023-02-28T12:39:44;101517.06;;;7.81;44.29
62152;BME280;48139;47.474;19.034;2023-02-28T12:42:56;101517.03;;;7.84;43.97
62152;BME280;48139;47.474;19.034;2023-02-28T12:46:05;101511.03;;;7.79;44.11
62152;BME280;48139;47.474;19.034;2023-02-28T12:49:19;101514.28;;;7.40;44.51
62152;BME280;48139;47.474;19.034;2023-02-28T13:00:04;101515.16;;;7.39;45.30
62152;BME280;48139;47.474;19.034;2023-02-28T13:10:00;101499.19;;;7.60;45.62
62152;BME280;48139;47.474;19.034;2023-02-28T13:13:04;101494.50;;;7.79;44.54
62152;BME280;48139;47.474;19.034;2023-02-28T13:16:08;101494.78;;;8.11;44.04
62152;BME280;48139;47.474;19.034;2023-02-28T13:19:17;101496.41;;;8.18;44.56
62152;BME280;48139;47.474;19.034;2023-02-28T13:22:40;101495.03;;;7.99;44.30
62152;BME280;48139;47.474;19.034;2023-02-28T13:38:33;101485.25;;;7.61;46.45
62152;BME280;48139;47.474;19.034;2023-02-28T13:41:42;101484.75;;;7.39;46.74
62152;BME280;48139;47.474;19.034;2023-02-28T13:48:15;101473.31;;;7.46;47.04
62152;BME280;48139;47.474;19.034;2023-02-28T14:02:03;101461.75;;;7.10;48.23
62152;BME280;48139;47.474;19.034;2023-02-28T14:05:17;101463.34;;;7.19;48.25
62152;BME280;48139;47.474;19.034;2023-02-28T14:08:21;101459.81;;;7.23;48.19
62152;BME280;48139;47.474;19.034;2023-02-28T14:11:42;101450.97;;;7.33;48.19
62152;BME280;48139;47.474;19.034;2023-02-28T14:17:52;101451.72;;;7.38;48.04
62152;BME280;48139;47.474;19.034;2023-02-28T14:20:59;101453.53;;;7.35;47.75
62152;BME280;48139;47.474;19.034;2023-02-28T14:27:40;101457.19;;;7.24;47.97
62152;BME280;48139;47.474;19.034;2023-02-28T14:30:57;101457.50;;;7.03;48.90
62152;BME280;48139;47.474;19.034;2023-02-28T14:34:26;101445.34;;;7.04;48.41
62152;BME280;48139;47.474;19.034;2023-02-28T14:37:38;101444.38;;;7.09;48.27
62152;BME280;48139;47.474;19.034;2023-02-28T14:40:41;101434.06;;;7.03;48.26
62152;BME280;48139;47.474;19.034;2023-02-28T14:43:53;101440.25;;;6.96;49.15
62152;BME280;48139;47.474;19.034;2023-02-28T14:47:01;101446.44;;;6.87;49.15
62152;BME280;48139;47.474;19.034;2023-02-28T14:50:22;101446.50;;;6.86;49.46
62152;BME280;48139;47.474;19.034;2023-02-28T14:53:27;101434.47;;;6.76;49.96
62152;BME280;48139;47.474;19.034;2023-02-28T14:56:37;101441.22;;;6.87;49.47
62152;BME280;48139;47.474;19.034;2023-02-28T14:59:41;101445.56;;;6.90;49.55
62152;BME280;48139;47.474;19.034;2023-02-28T15:02:44;101441.03;;;7.00;49.46
62152;BME280;48139;47.474;19.034;2023-02-28T15:05:58;101443.44;;;7.15;49.08
62152;BME280;48139;47.474;19.034;2023-02-28T15:09:27;101447.84;;;7.10;48.90
62152;BME280;48139;47.474;19.034;2023-02-28T15:12:30;101448.62;;;7.16;48.81
62152;BME280;48139;47.474;19.034;2023-02-28T15:19:26;101448.91;;;6.98;49.18
62152;BME280;48139;47.474;19.034;2023-02-28T15:22:35;101445.44;;;6.98;49.36
62152;BME280;48139;47.474;19.034;2023-02-28T15:25:39;101453.87;;;6.52;50.46
62152;BME280;48139;47.474;19.034;2023-02-28T15:28:43;101456.38;;;6.61;50.54
62152;BME280;48139;47.474;19.034;2023-02-28T15:32:37;101452.06;;;6.60;50.30
62152;BME280;48139;47.474;19.034;2023-02-28T15:38:27;101440.87;;;6.52;50.66
62152;BME280;48139;47.474;19.034;2023-02-28T15:41:35;101437.31;;;6.58;50.58
62152;BME280;48139;47.474;19.034;2023-02-28T15:44:40;101442.66;;;6.48;51.49
62152;BME280;48139;47.474;19.034;2023-02-28T15:47:45;101441.72;;;6.53;52.52
62152;BME280;48139;47.474;19.034;2023-02-28T15:50:56;101440.84;;;6.55;52.60
62152;BME280;48139;47.474;19.034;2023-02-28T15:54:11;101439.44;;;6.30;53.41
62152;BME280;48139;47.474;19.034;2023-02-28T15:57:19;101440.47;;;6.17;54.27
62152;BME280;48139;47.474;19.034;2023-02-28T16:00:25;101443.22;;;6.03;54.67
62152;BME280;48139;47.474;19.034;2023-02-28T16:03:38;101444.25;;;5.84;55.62
62152;BME280;48139;47.474;19.034;2023-02-28T16:06:45;101441.69;;;5.81;55.75
62152;BME280;48139;47.474;19.034;2023-02-28T16:09:48;101447.88;;;5.67;56.25
62152;BME280;48139;47.474;19.034;2023-02-28T16:12:54;101446.16;;;5.66;57.27
62152;BME280;48139;47.474;19.034;2023-02-28T16:15:57;101453.84;;;5.76;56.82
62152;BME280;48139;47.474;19.034;2023-02-28T16:19:02;101454.78;;;5.70;56.99
62152;BME280;48139;47.474;19.034;2023-02-28T16:22:05;101470.38;;;5.72;57.55
62152;BME280;48139;47.474;19.034;2023-02-28T16:25:18;101471.44;;;5.49;58.07
62152;BME280;48139;47.474;19.034;2023-02-28T16:28:31;101470.59;;;5.47;58.49
62152;BME280;48139;47.474;19.034;2023-02-28T16:31:37;101458.47;;;5.48;58.70
62152;BME280;48139;47.474;19.034;2023-02-28T16:34:40;101470.59;;;5.44;58.77
62152;BME280;48139;47.474;19.034;2023-02-28T16:37:43;101473.25;;;5.38;59.06
62152;BME280;48139;47.474;19.034;2023-02-28T16:40:49;101477.63;;;5.33;59.83
62152;BME280;48139;47.474;19.034;2023-02-28T16:43:54;101468.13;;;5.31;60.38
62152;BME280;48139;47.474;19.034;2023-02-28T16:47:03;101473.28;;;5.35;60.41
